sensor_id;sensor_type;location;lat;lon;timestamp;pressure;altitude;pressure_sealevel;temperature;humidity
57050;BME280;42935;50.966;16.992;2024-02-16T00:02:49;101851.80;;;6.66;100.00
57050;BME280;42935;50.966;16.992;2024-02-16T00:06:12;101855.18;;;6.81;100.00
57050;BME280;42935;50.966;16.992;2024-02-16T00:09:38;101842.02;;;6.75;100.00
57050;BME280;42935;50.966;16.992;2024-02-16T00:12:59;101842.20;;;6.90;100.00
57050;BME280;42935;50.966;16.992;2024-02-16T00:16:19;101843.88;;;6.85;100.00
57050;BME280;42935;50.966;16.992;2024-02-16T00:19:41;101833.78;;;6.68;100.00
57050;BME280;42935;50.966;16.992;2024-02-16T00:23:09;101833.13;;;6.62;100.00
57050;BME280;42935;50.966;16.992;2024-02-16T00:26:28;101828.48;;;6.61;100.00
57050;BME280;42935;50.966;16.992;2024-02-16T00:29:45;101840.04;;;6.71;100.00
57050;BME280;42935;50.966;16.992;2024-02-16T00:33:14;101823.21;;;6.63;100.00
57050;BME280;42935;50.966;16.992;2024-02-16T00:37:13;101830.96;;;6.74;100.00
57050;BME280;42935;50.966;16.992;2024-02-16T00:40:31;101826.66;;;6.91;100.00
57050;BME280;42935;50.966;16.992;2024-02-16T00:43:54;101815.29;;;6.71;100.00
57050;BME280;42935;50.966;16.992;2024-02-16T00:47:16;101821.36;;;6.65;100.00
57050;BME280;42935;50.966;16.992;2024-02-16T00:50:36;101815.59;;;6.64;100.00
57050;BME280;42935;50.966;16.992;2024-02-16T00:53:55;101814.10;;;6.41;100.00
57050;BME280;42935;50.966;16.992;2024-02-16T00:57:16;101826.08;;;6.39;100.00
57050;BME280;42935;50.966;16.992;2024-02-16T01:00:36;101830.65;;;6.32;100.00
57050;BME280;42935;50.966;16.992;2024-02-16T01:03:56;101830.82;;;6.22;100.00
57050;BME280;42935;50.966;16.992;2024-02-16T01:07:17;101819.52;;;6.06;100.00
57050;BME280;42935;50.966;16.992;2024-02-16T01:10:32;101814.52;;;6.07;100.00
57050;BME280;42935;50.966;16.992;2024-02-16T01:14:22;101816.00;;;6.11;100.00
57050;BME280;42935;50.966;16.992;2024-02-16T01:17:39;101808.19;;;6.03;100.00
57050;BME280;42935;50.966;16.992;2024-02-16T01:20:59;101818.83;;;6.03;100.00
57050;BME280;42935;50.966;16.992;2024-02-16T01:24:20;101822.54;;;6.01;100.00
57050;BME280;42935;50.966;16.992;2024-02-16T01:27:39;101821.66;;;5.96;100.00
57050;BME280;42935;50.966;16.992;2024-02-16T01:31:06;101821.58;;;5.95;100.00
57050;BME280;42935;50.966;16.992;2024-02-16T01:34:28;101824.45;;;5.99;100.00
57050;BME280;42935;50.966;16.992;2024-02-16T01:37:49;101827.45;;;5.94;100.00
57050;BME280;42935;50.966;16.992;2024-02-16T01:41:10;101832.12;;;5.88;100.00
57050;BME280;42935;50.966;16.992;2024-02-16T01:44:33;101823.11;;;5.78;100.00
57050;BME280;42935;50.966;16.992;2024-02-16T01:47:51;101825.33;;;5.74;100.00
57050;BME280;42935;50.966;16.992;2024-02-16T01:51:11;101803.26;;;5.68;100.00
57050;BME280;42935;50.966;16.992;2024-02-16T01:54:31;101820.64;;;5.73;100.00
57050;BME280;42935;50.966;16.992;2024-02-16T01:57:51;101815.11;;;5.67;100.00
57050;BME280;42935;50.966;16.992;2024-02-16T02:01:11;101800.26;;;5.58;100.00
57050;BME280;42935;50.966;16.992;2024-02-16T02:04:34;101784.62;;;5.46;100.00
57050;BME280;42935;50.966;16.992;2024-02-16T02:07:55;101802.95;;;5.49;100.00
57050;BME280;42935;50.966;16.992;2024-02-16T02:11:15;101795.05;;;5.34;100.00
57050;BME280;42935;50.966;16.992;2024-02-16T02:15:09;101785.88;;;5.29;100.00
57050;BME280;42935;50.966;16.992;2024-02-16T02:18:58;101784.95;;;5.05;100.00
57050;BME280;42935;50.966;16.992;2024-02-16T02:22:19;101793.04;;;5.15;100.00
57050;BME280;42935;50.966;16.992;2024-02-16T02:25:46;101778.34;;;5.06;100.00
57050;BME280;42935;50.966;16.992;2024-02-16T02:29:08;101786.59;;;5.14;100.00
57050;BME280;42935;50.966;16.992;2024-02-16T02:32:28;101774.26;;;5.10;100.00
57050;BME280;42935;50.966;16.992;2024-02-16T02:35:48;101781.12;;;5.24;100.00
57050;BME280;42935;50.966;16.992;2024-02-16T02:39:05;101775.65;;;5.14;100.00
57050;BME280;42935;50.966;16.992;2024-02-16T02:42:25;101762.79;;;5.18;100.00
57050;BME280;42935;50.966;16.992;2024-02-16T02:45:46;101756.96;;;5.13;100.00
57050;BME280;42935;50.966;16.992;2024-02-16T02:49:01;101745.87;;;5.01;100.00
57050;BME280;42935;50.966;16.992;2024-02-16T02:52:22;101765.19;;;4.97;100.00
57050;BME280;42935;50.966;16.992;2024-02-16T02:55:39;101762.32;;;4.99;100.00
57050;BME280;42935;50.966;16.992;2024-02-16T02:58:59;101768.30;;;5.05;100.00
57050;BME280;42935;50.966;16.992;2024-02-16T03:02:22;101772.64;;;4.88;100.00
57050;BME280;42935;50.966;16.992;2024-02-16T03:05:45;101774.63;;;4.91;100.00
57050;BME280;42935;50.966;16.992;2024-02-16T03:09:03;101750.77;;;4.84;100.00
57050;BME280;42935;50.966;16.992;2024-02-16T03:12:25;101696.20;;;4.50;100.00
57050;BME280;42935;50.966;16.992;2024-02-16T03:15:42;101777.87;;;4.93;100.00
57050;BME280;42935;50.966;16.992;2024-02-16T03:19:05;101766.34;;;4.95;100.00
57050;BME280;42935;50.966;16.992;2024-02-16T03:22:28;101773.68;;;4.89;100.00
57050;BME280;42935;50.966;16.992;2024-02-16T03:25:52;101777.90;;;4.93;100.00
57050;BME280;42935;50.966;16.992;2024-02-16T03:29:10;101771.04;;;4.93;100.00
57050;BME280;42935;50.966;16.992;2024-02-16T03:32:34;101784.24;;;4.78;100.00
57050;BME280;42935;50.966;16.992;2024-02-16T03:35:54;101765.76;;;4.59;100.00
57050;BME280;42935;50.966;16.992;2024-02-16T03:39:17;101763.57;;;4.51;100.00
57050;BME280;42935;50.966;16.992;2024-02-16T03:43:08;101769.05;;;4.52;100.00
57050;BME280;42935;50.966;16.992;2024-02-16T03:46:26;101775.80;;;4.69;100.00
57050;BME280;42935;50.966;16.992;2024-02-16T03:49:46;101757.00;;;4.57;100.00
57050;BME280;42935;50.966;16.992;2024-02-16T03:53:01;101769.96;;;4.41;100.00
57050;BME280;42935;50.966;16.992;2024-02-16T03:56:21;101785.40;;;4.43;100.00
57050;BME280;42935;50.966;16.992;2024-02-16T04:00:09;101766.37;;;4.42;100.00
57050;BME280;42935;50.966;16.992;2024-02-16T04:03:29;101778.46;;;4.66;100.00
57050;BME280;42935;50.966;16.992;2024-02-16T04:06:54;101774.54;;;4.77;100.00
57050;BME280;42935;50.966;16.992;2024-02-16T04:10:10;101754.48;;;4.59;100.00
57050;BME280;42935;50.966;16.992;2024-02-16T04:13:29;101765.60;;;4.79;100.00
57050;BME280;42935;50.966;16.992;2024-02-16T04:16:46;101776.96;;;4.83;100.00
57050;BME280;42935;50.966;16.992;2024-02-16T04:20:15;101776.92;;;4.69;100.00
57050;BME280;42935;50.966;16.992;2024-02-16T04:23:36;101765.97;;;4.52;100.00
57050;BME280;42935;50.966;16.992;2024-02-16T04:26:59;101773.78;;;4.41;100.00
57050;BME280;42935;50.966;16.992;2024-02-16T04:30:19;101752.30;;;4.45;100.00
57050;BME280;42935;50.966;16.992;2024-02-16T04:33:39;101766.78;;;4.60;100.00
57050;BME280;42935;50.966;16.992;2024-02-16T04:36:59;101778.15;;;4.62;100.00
57050;BME280;42935;50.966;16.992;2024-02-16T04:40:22;101780.61;;;4.45;100.00
57050;BME280;42935;50.966;16.992;2024-02-16T04:43:41;101785.38;;;4.25;100.00
57050;BME280;42935;50.966;16.992;2024-02-16T04:47:09;101771.51;;;4.11;100.00
57050;BME280;42935;50.966;16.992;2024-02-16T04:50:32;101787.45;;;3.97;100.00
57050;BME280;42935;50.966;16.992;2024-02-16T04:53:51;101756.55;;;3.86;100.00
57050;BME280;42935;50.966;16.992;2024-02-16T04:57:10;101768.36;;;3.72;100.00
57050;BME280;42935;50.966;16.992;2024-02-16T05:00:28;101764.08;;;3.38;100.00
57050;BME280;42935;50.966;16.992;2024-02-16T05:03:54;101761.14;;;3.28;100.00
57050;BME280;42935;50.966;16.992;2024-02-16T05:07:19;101750.95;;;3.48;100.00
57050;BME280;42935;50.966;16.992;2024-02-16T05:10:42;101761.09;;;3.64;100.00
57050;BME280;42935;50.966;16.992;2024-02-16T05:14:38;101764.90;;;3.70;100.00
57050;BME280;42935;50.966;16.992;2024-02-16T05:18:12;101763.34;;;3.77;100.00
57050;BME280;42935;50.966;16.992;2024-02-16T05:21:33;101759.38;;;3.80;100.00
57050;BME280;42935;50.966;16.992;2024-02-16T05:24:53;101765.48;;;3.86;100.00
57050;BME280;42935;50.966;16.992;2024-02-16T05:28:15;101750.60;;;3.88;100.00
57050;BME280;42935;50.966;16.992;2024-02-16T05:31:42;101762.88;;;3.82;100.00
57050;BME280;42935;50.966;16.992;2024-02-16T05:35:07;101758.54;;;3.95;100.00
57050;BME280;42935;50.966;16.992;2024-02-16T05:38:30;101750.43;;;3.96;100.00
57050;BME280;42935;50.966;16.992;2024-02-16T05:42:02;101752.89;;;4.03;100.00
57050;BME280;42935;50.966;16.992;2024-02-16T05:45:30;101756.50;;;4.05;100.00
57050;BME280;42935;50.966;16.992;2024-02-16T05:48:53;101740.28;;;3.88;100.00
57050;BME280;42935;50.966;16.992;2024-02-16T05:52:12;101748.34;;;3.91;100.00
57050;BME280;42935;50.966;16.992;2024-02-16T05:55:35;101745.59;;;3.81;100.00
57050;BME280;42935;50.966;16.992;2024-02-16T05:59:08;101756.30;;;3.87;100.00
57050;BME280;42935;50.966;16.992;2024-02-16T06:02:43;101760.15;;;3.84;100.00
57050;BME280;42935;50.966;16.992;2024-02-16T06:05:59;101766.73;;;3.87;100.00
57050;BME280;42935;50.966;16.992;2024-02-16T06:09:18;101759.02;;;3.91;100.00
57050;BME280;42935;50.966;16.992;2024-02-16T06:12:45;101764.27;;;3.94;100.00
57050;BME280;42935;50.966;16.992;2024-02-16T06:16:06;101760.12;;;3.97;100.00
57050;BME280;42935;50.966;16.992;2024-02-16T06:19:27;101758.22;;;3.99;100.00
57050;BME280;42935;50.966;16.992;2024-02-16T06:22:56;101749.96;;;3.90;100.00
57050;BME280;42935;50.966;16.992;2024-02-16T06:26:13;101753.09;;;3.93;100.00
57050;BME280;42935;50.966;16.992;2024-02-16T06:29:34;101741.73;;;3.84;100.00
57050;BME280;42935;50.966;16.992;2024-02-16T06:32:59;101765.89;;;4.03;100.00
57050;BME280;42935;50.966;16.992;2024-02-16T06:36:25;101764.52;;;4.12;100.00
57050;BME280;42935;50.966;16.992;2024-02-16T06:39:47;101762.50;;;4.21;100.00
57050;BME280;42935;50.966;16.992;2024-02-16T06:43:11;101760.16;;;4.20;100.00
57050;BME280;42935;50.966;16.992;2024-02-16T06:46:32;101768.80;;;4.37;100.00
57050;BME280;42935;50.966;16.992;2024-02-16T06:49:53;101765.38;;;4.35;100.00
57050;BME280;42935;50.966;16.992;2024-02-16T06:53:15;101765.74;;;4.39;100.00
57050;BME280;42935;50.966;16.992;2024-02-16T06:56:35;101777.54;;;4.43;100.00
57050;BME280;42935;50.966;16.992;2024-02-16T06:59:57;101776.13;;;4.48;100.00
57050;BME280;42935;50.966;16.992;2024-02-16T07:03:16;101792.67;;;4.61;100.00
57050;BME280;42935;50.966;16.992;2024-02-16T07:06:38;101778.08;;;4.64;100.00
57050;BME280;42935;50.966;16.992;2024-02-16T07:10:00;101779.24;;;4.78;100.00
57050;BME280;42935;50.966;16.992;2024-02-16T07:13:24;101783.02;;;4.95;100.00
57050;BME280;42935;50.966;16.992;2024-02-16T07:17:14;101787.84;;;5.19;100.00
57050;BME280;42935;50.966;16.992;2024-02-16T07:20:32;101783.72;;;5.42;100.00
57050;BME280;42935;50.966;16.992;2024-02-16T07:24:00;101762.88;;;5.41;100.00
57050;BME280;42935;50.966;16.992;2024-02-16T07:27:22;101790.48;;;5.64;100.00
57050;BME280;42935;50.966;16.992;2024-02-16T07:30:51;101786.30;;;5.97;100.00
57050;BME280;42935;50.966;16.992;2024-02-16T07:34:12;101773.12;;;6.33;100.00
57050;BME280;42935;50.966;16.992;2024-02-16T07:37:37;101771.88;;;6.71;100.00
57050;BME280;42935;50.966;16.992;2024-02-16T07:40:57;101742.37;;;6.63;100.00
57050;BME280;42935;50.966;16.992;2024-02-16T07:44:27;101761.05;;;7.05;100.00
57050;BME280;42935;50.966;16.992;2024-02-16T07:47:47;101764.95;;;7.23;100.00
57050;BME280;42935;50.966;16.992;2024-02-16T07:51:06;101763.18;;;7.21;100.00
57050;BME280;42935;50.966;16.992;2024-02-16T07:54:29;101758.30;;;7.24;100.00
57050;BME280;42935;50.966;16.992;2024-02-16T07:58:23;101765.93;;;7.41;100.00
57050;BME280;42935;50.966;16.992;2024-02-16T08:01:44;101771.50;;;7.50;100.00
57050;BME280;42935;50.966;16.992;2024-02-16T08:05:05;101765.27;;;7.54;100.00
57050;BME280;42935;50.966;16.992;2024-02-16T08:08:42;101755.77;;;7.71;100.00
57050;BME280;42935;50.966;16.992;2024-02-16T08:12:02;101762.94;;;7.91;100.00
57050;BME280;42935;50.966;16.992;2024-02-16T08:15:23;101759.05;;;8.06;100.00
57050;BME280;42935;50.966;16.992;2024-02-16T08:18:44;101761.62;;;8.24;100.00
57050;BME280;42935;50.966;16.992;2024-02-16T08:22:08;101716.97;;;8.11;100.00
57050;BME280;42935;50.966;16.992;2024-02-16T08:25:28;101754.10;;;8.44;100.00
57050;BME280;42935;50.966;16.992;2024-02-16T08:28:52;101749.38;;;8.60;100.00
57050;BME280;42935;50.966;16.992;2024-02-16T08:32:15;101751.64;;;8.83;100.00
57050;BME280;42935;50.966;16.992;2024-02-16T08:35:36;101754.63;;;9.06;100.00
57050;BME280;42935;50.966;16.992;2024-02-16T08:39:00;101741.55;;;9.27;100.00
57050;BME280;42935;50.966;16.992;2024-02-16T08:42:50;101745.98;;;9.44;100.00
57050;BME280;42935;50.966;16.992;2024-02-16T08:46:10;101739.44;;;9.44;100.00
57050;BME280;42935;50.966;16.992;2024-02-16T08:49:30;101742.70;;;9.65;100.00
57050;BME280;42935;50.966;16.992;2024-02-16T08:52:56;101720.96;;;9.70;100.00
57050;BME280;42935;50.966;16.992;2024-02-16T08:56:16;101729.42;;;9.92;100.00
57050;BME280;42935;50.966;16.992;2024-02-16T08:59:32;101716.88;;;9.93;100.00
57050;BME280;42935;50.966;16.992;2024-02-16T09:02:59;101721.96;;;10.02;100.00
57050;BME280;42935;50.966;16.992;2024-02-16T09:06:29;101699.73;;;9.97;100.00
57050;BME280;42935;50.966;16.992;2024-02-16T09:09:47;101712.75;;;10.05;100.00
57050;BME280;42935;50.966;16.992;2024-02-16T09:13:40;101718.63;;;10.05;100.00
57050;BME280;42935;50.966;16.992;2024-02-16T09:17:00;101713.45;;;10.06;100.00
57050;BME280;42935;50.966;16.992;2024-02-16T09:20:18;101706.48;;;10.11;100.00
57050;BME280;42935;50.966;16.992;2024-02-16T09:23:41;101715.20;;;10.38;100.00
57050;BME280;42935;50.966;16.992;2024-02-16T09:27:02;101711.85;;;10.58;100.00
57050;BME280;42935;50.966;16.992;2024-02-16T09:30:21;101704.59;;;10.80;98.83
57050;BME280;42935;50.966;16.992;2024-02-16T09:34:14;101709.40;;;10.93;95.39
57050;BME280;42935;50.966;16.992;2024-02-16T09:38:05;101694.37;;;10.84;94.79
57050;BME280;42935;50.966;16.992;2024-02-16T09:41:26;101704.27;;;11.00;92.98
57050;BME280;42935;50.966;16.992;2024-02-16T09:44:47;101697.47;;;11.04;92.05
57050;BME280;42935;50.966;16.992;2024-02-16T09:48:09;101717.76;;;11.09;92.26
57050;BME280;42935;50.966;16.992;2024-02-16T09:51:31;101705.16;;;10.95;94.02
57050;BME280;42935;50.966;16.992;2024-02-16T09:55:26;101723.90;;;11.32;92.82
57050;BME280;42935;50.966;16.992;2024-02-16T09:58:52;101723.13;;;11.37;92.69
57050;BME280;42935;50.966;16.992;2024-02-16T10:02:15;101710.48;;;11.10;89.77
57050;BME280;42935;50.966;16.992;2024-02-16T10:05:36;101730.03;;;11.15;89.77
57050;BME280;42935;50.966;16.992;2024-02-16T10:08:57;101718.16;;;11.04;92.56
57050;BME280;42935;50.966;16.992;2024-02-16T10:12:20;101717.84;;;11.20;92.80
57050;BME280;42935;50.966;16.992;2024-02-16T10:15:40;101721.19;;;11.52;91.90
57050;BME280;42935;50.966;16.992;2024-02-16T10:19:06;101723.73;;;11.71;85.58
57050;BME280;42935;50.966;16.992;2024-02-16T10:22:25;101697.63;;;11.63;86.84
57050;BME280;42935;50.966;16.992;2024-02-16T10:25:42;101730.91;;;11.84;86.90
57050;BME280;42935;50.966;16.992;2024-02-16T10:29:03;101716.52;;;12.00;90.49
57050;BME280;42935;50.966;16.992;2024-02-16T10:32:25;101721.16;;;12.03;85.54
57050;BME280;42935;50.966;16.992;2024-02-16T10:36:16;101718.83;;;12.22;82.19
57050;BME280;42935;50.966;16.992;2024-02-16T10:39:37;101688.07;;;12.12;83.34
57050;BME280;42935;50.966;16.992;2024-02-16T10:43:05;101709.96;;;12.42;85.75
57050;BME280;42935;50.966;16.992;2024-02-16T10:46:25;101694.85;;;12.48;84.22
57050;BME280;42935;50.966;16.992;2024-02-16T10:49:44;101694.59;;;12.46;82.70
57050;BME280;42935;50.966;16.992;2024-02-16T10:53:04;101696.08;;;12.55;81.37
57050;BME280;42935;50.966;16.992;2024-02-16T10:56:37;101675.58;;;12.59;82.37
57050;BME280;42935;50.966;16.992;2024-02-16T10:59:58;101687.59;;;12.73;81.26
57050;BME280;42935;50.966;16.992;2024-02-16T11:03:28;101672.64;;;12.74;78.93
57050;BME280;42935;50.966;16.992;2024-02-16T11:06:53;101672.23;;;12.76;80.04
57050;BME280;42935;50.966;16.992;2024-02-16T11:10:15;101666.52;;;12.94;78.79
57050;BME280;42935;50.966;16.992;2024-02-16T11:13:36;101657.04;;;12.90;78.45
57050;BME280;42935;50.966;16.992;2024-02-16T11:16:58;101654.46;;;12.76;77.74
57050;BME280;42935;50.966;16.992;2024-02-16T11:20:17;101663.01;;;12.51;80.47
57050;BME280;42935;50.966;16.992;2024-02-16T11:23:41;101652.16;;;12.34;79.31
57050;BME280;42935;50.966;16.992;2024-02-16T11:27:03;101651.17;;;12.38;80.24
57050;BME280;42935;50.966;16.992;2024-02-16T11:30:21;101650.35;;;12.37;79.59
57050;BME280;42935;50.966;16.992;2024-02-16T11:33:44;101655.64;;;12.73;78.08
57050;BME280;42935;50.966;16.992;2024-02-16T11:37:02;101646.72;;;12.92;76.01
57050;BME280;42935;50.966;16.992;2024-02-16T11:40:24;101638.68;;;13.13;77.44
57050;BME280;42935;50.966;16.992;2024-02-16T11:43:45;101624.74;;;13.02;75.51
57050;BME280;42935;50.966;16.992;2024-02-16T11:47:06;101632.21;;;13.18;75.86
57050;BME280;42935;50.966;16.992;2024-02-16T11:50:33;101633.98;;;13.38;75.66
57050;BME280;42935;50.966;16.992;2024-02-16T11:53:59;101626.99;;;13.43;76.81
57050;BME280;42935;50.966;16.992;2024-02-16T11:57:20;101627.50;;;13.42;75.84
57050;BME280;42935;50.966;16.992;2024-02-16T12:00:41;101622.16;;;13.48;75.28
57050;BME280;42935;50.966;16.992;2024-02-16T12:04:07;101609.98;;;13.67;75.45
57050;BME280;42935;50.966;16.992;2024-02-16T12:07:29;101615.39;;;13.79;74.09
57050;BME280;42935;50.966;16.992;2024-02-16T12:11:23;101625.87;;;13.96;74.23
57050;BME280;42935;50.966;16.992;2024-02-16T12:14:42;101615.75;;;14.09;75.08
57050;BME280;42935;50.966;16.992;2024-02-16T12:18:03;101604.37;;;14.12;73.65
57050;BME280;42935;50.966;16.992;2024-02-16T12:21:24;101608.86;;;14.07;71.98
57050;BME280;42935;50.966;16.992;2024-02-16T12:24:42;101600.39;;;14.18;73.10
57050;BME280;42935;50.966;16.992;2024-02-16T12:28:04;101589.54;;;14.02;71.76
57050;BME280;42935;50.966;16.992;2024-02-16T12:31:26;101600.63;;;13.93;74.35
57050;BME280;42935;50.966;16.992;2024-02-16T12:35:17;101604.96;;;14.06;72.92
57050;BME280;42935;50.966;16.992;2024-02-16T12:38:39;101592.29;;;14.05;71.16
57050;BME280;42935;50.966;16.992;2024-02-16T12:41:57;101588.01;;;13.59;72.83
57050;BME280;42935;50.966;16.992;2024-02-16T12:45:21;101584.61;;;13.81;75.73
57050;BME280;42935;50.966;16.992;2024-02-16T12:48:47;101589.90;;;13.73;72.78
57050;BME280;42935;50.966;16.992;2024-02-16T12:52:09;101599.15;;;14.28;73.30
57050;BME280;42935;50.966;16.992;2024-02-16T12:55:31;101592.10;;;14.61;73.45
57050;BME280;42935;50.966;16.992;2024-02-16T12:58:54;101595.86;;;14.89;71.90
57050;BME280;42935;50.966;16.992;2024-02-16T13:02:17;101547.12;;;14.51;71.80
57050;BME280;42935;50.966;16.992;2024-02-16T13:05:36;101592.41;;;14.70;70.91
57050;BME280;42935;50.966;16.992;2024-02-16T13:09:01;101584.61;;;14.96;70.22
57050;BME280;42935;50.966;16.992;2024-02-16T13:12:55;101578.81;;;14.56;71.08
57050;BME280;42935;50.966;16.992;2024-02-16T13:16:17;101573.13;;;14.19;71.97
57050;BME280;42935;50.966;16.992;2024-02-16T13:19:37;101579.18;;;13.90;72.87
57050;BME280;42935;50.966;16.992;2024-02-16T13:22:59;101573.41;;;13.59;74.80
57050;BME280;42935;50.966;16.992;2024-02-16T13:26:20;101573.63;;;13.39;75.72
57050;BME280;42935;50.966;16.992;2024-02-16T13:30:12;101585.63;;;13.42;75.77
57050;BME280;42935;50.966;16.992;2024-02-16T13:33:34;101584.02;;;13.44;77.70
57050;BME280;42935;50.966;16.992;2024-02-16T13:36:56;101567.89;;;13.36;77.03
57050;BME280;42935;50.966;16.992;2024-02-16T13:40:18;101566.23;;;13.30;76.48
57050;BME280;42935;50.966;16.992;2024-02-16T13:43:43;101566.38;;;13.22;76.94
57050;BME280;42935;50.966;16.992;2024-02-16T13:47:33;101572.89;;;13.05;77.78
57050;BME280;42935;50.966;16.992;2024-02-16T13:50:54;101580.33;;;12.90;78.67
57050;BME280;42935;50.966;16.992;2024-02-16T13:54:26;101581.89;;;12.85;79.39
57050;BME280;42935;50.966;16.992;2024-02-16T13:58:22;101587.51;;;12.91;78.88
57050;BME280;42935;50.966;16.992;2024-02-16T14:01:40;101568.87;;;12.74;80.62
57050;BME280;42935;50.966;16.992;2024-02-16T14:04:59;101564.18;;;12.48;81.49
57050;BME280;42935;50.966;16.992;2024-02-16T14:08:21;101585.92;;;12.62;82.07
57050;BME280;42935;50.966;16.992;2024-02-16T14:12:13;101581.91;;;12.61;81.73
57050;BME280;42935;50.966;16.992;2024-02-16T14:15:32;101585.88;;;12.57;81.02
57050;BME280;42935;50.966;16.992;2024-02-16T14:18:51;101583.60;;;12.58;81.83
57050;BME280;42935;50.966;16.992;2024-02-16T14:22:15;101581.03;;;12.55;81.56
57050;BME280;42935;50.966;16.992;2024-02-16T14:25:38;101557.81;;;12.33;81.76
57050;BME280;42935;50.966;16.992;2024-02-16T14:28:59;101569.48;;;12.39;82.24
57050;BME280;42935;50.966;16.992;2024-02-16T14:32:22;101573.73;;;12.41;82.03
57050;BME280;42935;50.966;16.992;2024-02-16T14:35:44;101579.45;;;12.44;82.27
57050;BME280;42935;50.966;16.992;2024-02-16T14:39:07;101573.94;;;12.40;82.66
57050;BME280;42935;50.966;16.992;2024-02-16T14:42:34;101559.59;;;12.25;83.00
57050;BME280;42935;50.966;16.992;2024-02-16T14:46:00;101573.23;;;12.30;83.66
57050;BME280;42935;50.966;16.992;2024-02-16T14:49:23;101556.02;;;12.17;83.56
57050;BME280;42935;50.966;16.992;2024-02-16T14:52:43;101579.59;;;12.24;84.73
57050;BME280;42935;50.966;16.992;2024-02-16T14:56:05;101572.06;;;12.17;84.70
57050;BME280;42935;50.966;16.992;2024-02-16T14:59:26;101571.31;;;12.16;84.80
57050;BME280;42935;50.966;16.992;2024-02-16T15:02:49;101566.63;;;12.08;85.57
57050;BME280;42935;50.966;16.992;2024-02-16T15:06:44;101573.63;;;12.05;86.36
57050;BME280;42935;50.966;16.992;2024-02-16T15:10:37;101563.53;;;12.03;86.24
57050;BME280;42935;50.966;16.992;2024-02-16T15:14:01;101555.84;;;12.03;87.22
57050;BME280;42935;50.966;16.992;2024-02-16T15:17:25;101570.66;;;12.08;86.90
57050;BME280;42935;50.966;16.992;2024-02-16T15:20:44;101561.85;;;11.98;86.23
57050;BME280;42935;50.966;16.992;2024-02-16T15:24:04;101572.78;;;12.01;87.52
57050;BME280;42935;50.966;16.992;2024-02-16T15:27:28;101570.52;;;11.93;87.67
57050;BME280;42935;50.966;16.992;2024-02-16T15:30:46;101570.98;;;11.98;88.90
57050;BME280;42935;50.966;16.992;2024-02-16T15:34:08;101564.01;;;11.96;89.31
57050;BME280;42935;50.966;16.992;2024-02-16T15:37:30;101568.59;;;11.94;90.66
57050;BME280;42935;50.966;16.992;2024-02-16T15:41:28;101581.84;;;12.07;90.21
57050;BME280;42935;50.966;16.992;2024-02-16T15:44:48;101529.95;;;11.74;88.82
57050;BME280;42935;50.966;16.992;2024-02-16T15:48:10;101579.86;;;11.90;88.97
57050;BME280;42935;50.966;16.992;2024-02-16T15:51:34;101582.51;;;11.78;91.63
57050;BME280;42935;50.966;16.992;2024-02-16T15:54:55;101563.84;;;11.64;91.70
57050;BME280;42935;50.966;16.992;2024-02-16T15:58:15;101585.46;;;11.62;93.27
57050;BME280;42935;50.966;16.992;2024-02-16T16:01:35;101582.02;;;11.57;93.72
57050;BME280;42935;50.966;16.992;2024-02-16T16:04:56;101587.95;;;11.41;94.98
57050;BME280;42935;50.966;16.992;2024-02-16T16:08:19;101588.00;;;11.24;96.27
57050;BME280;42935;50.966;16.992;2024-02-16T16:12:10;101593.50;;;11.05;99.00
57050;BME280;42935;50.966;16.992;2024-02-16T16:15:27;101597.71;;;11.08;99.43
57050;BME280;42935;50.966;16.992;2024-02-16T16:18:50;101587.02;;;10.91;98.04
57050;BME280;42935;50.966;16.992;2024-02-16T16:22:15;101593.17;;;10.64;100.00
57050;BME280;42935;50.966;16.992;2024-02-16T16:25:35;101593.06;;;10.50;100.00
57050;BME280;42935;50.966;16.992;2024-02-16T16:29:27;101604.38;;;10.46;100.00
57050;BME280;42935;50.966;16.992;2024-02-16T16:32:47;101605.74;;;10.33;100.00
57050;BME280;42935;50.966;16.992;2024-02-16T16:36:05;101615.16;;;10.24;100.00
57050;BME280;42935;50.966;16.992;2024-02-16T16:39:38;101615.42;;;10.07;100.00
57050;BME280;42935;50.966;16.992;2024-02-16T16:43:27;101605.48;;;9.84;100.00
57050;BME280;42935;50.966;16.992;2024-02-16T16:46:51;101622.08;;;9.79;100.00
57050;BME280;42935;50.966;16.992;2024-02-16T16:50:19;101630.80;;;9.81;100.00
57050;BME280;42935;50.966;16.992;2024-02-16T16:53:36;101632.93;;;9.63;100.00
57050;BME280;42935;50.966;16.992;2024-02-16T16:57:31;101617.48;;;9.41;100.00
57050;BME280;42935;50.966;16.992;2024-02-16T17:00:47;101624.12;;;9.51;100.00
57050;BME280;42935;50.966;16.992;2024-02-16T17:04:08;101624.51;;;9.50;100.00
57050;BME280;42935;50.966;16.992;2024-02-16T17:07:26;101626.89;;;9.52;100.00
57050;BME280;42935;50.966;16.992;2024-02-16T17:10:46;101631.49;;;9.52;100.00
57050;BME280;42935;50.966;16.992;2024-02-16T17:14:08;101633.40;;;9.52;100.00
57050;BME280;42935;50.966;16.992;2024-02-16T17:21:11;101642.45;;;9.37;100.00
57050;BME280;42935;50.966;16.992;2024-02-16T17:24:32;101635.16;;;9.46;100.00
57050;BME280;42935;50.966;16.992;2024-02-16T17:27:54;101626.80;;;9.47;100.00
57050;BME280;42935;50.966;16.992;2024-02-16T17:31:20;101641.86;;;9.61;100.00
57050;BME280;42935;50.966;16.992;2024-02-16T17:35:08;101632.18;;;9.51;100.00
57050;BME280;42935;50.966;16.992;2024-02-16T17:38:30;101648.02;;;9.52;100.00
57050;BME280;42935;50.966;16.992;2024-02-16T17:41:58;101630.48;;;9.28;100.00